sensor_id;sensor_type;location;lat;lon;timestamp;temperature;humidity
51579;DHT22;47998;53.242;6.386;2023-02-01T00:02:06;6.10;1.00
51579;DHT22;47998;53.242;6.386;2023-02-01T00:04:32;6.00;1.00
51579;DHT22;47998;53.242;6.386;2023-02-01T00:06:57;6.10;99.90
51579;DHT22;47998;53.242;6.386;2023-02-01T00:09:23;6.10;1.00
51579;DHT22;47998;53.242;6.386;2023-02-01T00:11:49;6.10;99.90
51579;DHT22;47998;53.242;6.386;2023-02-01T00:14:15;6.10;1.00
51579;DHT22;47998;53.242;6.386;2023-02-01T00:16:40;6.10;1.00
51579;DHT22;47998;53.242;6.386;2023-02-01T00:19:10;6.10;99.90
51579;DHT22;47998;53.242;6.386;2023-02-01T00:21:36;6.10;1.00
51579;DHT22;47998;53.242;6.386;2023-02-01T00:24:03;6.10;99.90
51579;DHT22;47998;53.242;6.386;2023-02-01T00:26:37;6.10;99.90
51579;DHT22;47998;53.242;6.386;2023-02-01T00:29:06;6.10;99.90
51579;DHT22;47998;53.242;6.386;2023-02-01T00:31:32;6.10;1.00
51579;DHT22;47998;53.242;6.386;2023-02-01T00:33:58;6.10;99.90
51579;DHT22;47998;53.242;6.386;2023-02-01T00:36:23;6.10;99.90
51579;DHT22;47998;53.242;6.386;2023-02-01T00:38:49;6.20;99.90
51579;DHT22;47998;53.242;6.386;2023-02-01T00:41:17;6.20;99.90
51579;DHT22;47998;53.242;6.386;2023-02-01T00:43:43;6.20;99.90
51579;DHT22;47998;53.242;6.386;2023-02-01T00:46:10;6.10;99.90
51579;DHT22;47998;53.242;6.386;2023-02-01T00:48:37;6.10;99.90
51579;DHT22;47998;53.242;6.386;2023-02-01T00:51:07;6.10;1.00
51579;DHT22;47998;53.242;6.386;2023-02-01T00:53:33;6.00;1.00
51579;DHT22;47998;53.242;6.386;2023-02-01T00:55:59;6.10;99.90
51579;DHT22;47998;53.242;6.386;2023-02-01T00:58:25;6.10;99.90
51579;DHT22;47998;53.242;6.386;2023-02-01T01:01:18;6.10;99.90
51579;DHT22;47998;53.242;6.386;2023-02-01T01:03:53;6.10;1.00
51579;DHT22;47998;53.242;6.386;2023-02-01T01:06:26;6.10;99.90
51579;DHT22;47998;53.242;6.386;2023-02-01T01:08:53;6.20;99.90
51579;DHT22;47998;53.242;6.386;2023-02-01T01:11:23;6.20;1.00
51579;DHT22;47998;53.242;6.386;2023-02-01T01:13:51;6.20;1.00
51579;DHT22;47998;53.242;6.386;2023-02-01T01:16:18;6.10;1.00
51579;DHT22;47998;53.242;6.386;2023-02-01T01:18:44;6.20;1.00
51579;DHT22;47998;53.242;6.386;2023-02-01T01:21:13;6.20;1.00
51579;DHT22;47998;53.242;6.386;2023-02-01T01:23:39;6.20;1.00
51579;DHT22;47998;53.242;6.386;2023-02-01T01:26:10;6.20;1.00
51579;DHT22;47998;53.242;6.386;2023-02-01T01:28:37;6.20;1.00
51579;DHT22;47998;53.242;6.386;2023-02-01T01:31:03;6.20;1.00
51579;DHT22;47998;53.242;6.386;2023-02-01T01:33:28;6.20;99.90
51579;DHT22;47998;53.242;6.386;2023-02-01T01:35:54;6.10;99.90
51579;DHT22;47998;53.242;6.386;2023-02-01T01:38:20;6.00;99.90
51579;DHT22;47998;53.242;6.386;2023-02-01T01:40:46;5.90;1.00
51579;DHT22;47998;53.242;6.386;2023-02-01T01:43:17;5.90;99.90
51579;DHT22;47998;53.242;6.386;2023-02-01T01:45:45;5.80;99.90
51579;DHT22;47998;53.242;6.386;2023-02-01T01:48:30;5.60;1.00
51579;DHT22;47998;53.242;6.386;2023-02-01T01:51:07;5.50;1.00
51579;DHT22;47998;53.242;6.386;2023-02-01T01:53:38;5.50;3.90
51579;DHT22;47998;53.242;6.386;2023-02-01T01:56:06;5.50;46.10
51579;DHT22;47998;53.242;6.386;2023-02-01T01:58:33;5.40;52.40
51579;DHT22;47998;53.242;6.386;2023-02-01T02:00:59;5.40;41.30
51579;DHT22;47998;53.242;6.386;2023-02-01T02:03:39;5.50;96.50
51579;DHT22;47998;53.242;6.386;2023-02-01T02:08:58;5.50;32.80
51579;DHT22;47998;53.242;6.386;2023-02-01T02:11:24;5.50;99.90
51579;DHT22;47998;53.242;6.386;2023-02-01T02:13:52;5.40;99.90
51579;DHT22;47998;53.242;6.386;2023-02-01T02:28:00;5.40;99.90
51579;DHT22;47998;53.242;6.386;2023-02-01T02:30:40;5.50;88.90
51579;DHT22;47998;53.242;6.386;2023-02-01T02:33:34;5.40;99.90
51579;DHT22;47998;53.242;6.386;2023-02-01T02:39:38;5.50;81.00
51579;DHT22;47998;53.242;6.386;2023-02-01T02:45:25;5.60;1.00
51579;DHT22;47998;53.242;6.386;2023-02-01T02:48:13;5.70;99.90
51579;DHT22;47998;53.242;6.386;2023-02-01T02:50:58;5.80;99.90
51579;DHT22;47998;53.242;6.386;2023-02-01T02:53:53;5.80;99.90
51579;DHT22;47998;53.242;6.386;2023-02-01T02:56:41;5.80;99.90
51579;DHT22;47998;53.242;6.386;2023-02-01T02:59:26;5.90;5.60
51579;DHT22;47998;53.242;6.386;2023-02-01T03:02:13;6.00;1.00
51579;DHT22;47998;53.242;6.386;2023-02-01T03:04:57;6.00;1.00
51579;DHT22;47998;53.242;6.386;2023-02-01T03:08:00;6.10;99.90
51579;DHT22;47998;53.242;6.386;2023-02-01T03:10:35;6.10;1.00
51579;DHT22;47998;53.242;6.386;2023-02-01T03:21:57;6.10;99.90
51579;DHT22;47998;53.242;6.386;2023-02-01T03:27:07;6.10;99.90
51579;DHT22;47998;53.242;6.386;2023-02-01T03:32:28;6.10;99.90
51579;DHT22;47998;53.242;6.386;2023-02-01T03:34:54;6.10;99.90
51579;DHT22;47998;53.242;6.386;2023-02-01T03:37:25;6.10;99.90
51579;DHT22;47998;53.242;6.386;2023-02-01T03:40:01;6.20;99.90
51579;DHT22;47998;53.242;6.386;2023-02-01T03:42:39;6.20;99.90
51579;DHT22;47998;53.242;6.386;2023-02-01T03:45:19;6.20;99.90
51579;DHT22;47998;53.242;6.386;2023-02-01T03:47:49;6.20;99.90
51579;DHT22;47998;53.242;6.386;2023-02-01T03:50:23;6.10;1.00
51579;DHT22;47998;53.242;6.386;2023-02-01T03:52:59;6.00;99.90
51579;DHT22;47998;53.242;6.386;2023-02-01T03:55:27;5.80;99.90
51579;DHT22;47998;53.242;6.386;2023-02-01T04:00:28;5.70;1.00
51579;DHT22;47998;53.242;6.386;2023-02-01T04:02:54;5.70;1.00
51579;DHT22;47998;53.242;6.386;2023-02-01T04:05:20;5.70;1.00
51579;DHT22;47998;53.242;6.386;2023-02-01T04:07:46;5.70;1.00
51579;DHT22;47998;53.242;6.386;2023-02-01T04:10:12;5.90;99.90
51579;DHT22;47998;53.242;6.386;2023-02-01T04:12:39;5.90;99.90
51579;DHT22;47998;53.242;6.386;2023-02-01T04:15:05;6.10;99.90
51579;DHT22;47998;53.242;6.386;2023-02-01T04:17:31;5.90;99.90
51579;DHT22;47998;53.242;6.386;2023-02-01T04:19:57;6.00;99.90
51579;DHT22;47998;53.242;6.386;2023-02-01T04:22:23;6.00;99.90
51579;DHT22;47998;53.242;6.386;2023-02-01T04:24:49;6.00;99.90
51579;DHT22;47998;53.242;6.386;2023-02-01T04:27:14;5.90;99.90
51579;DHT22;47998;53.242;6.386;2023-02-01T04:29:40;5.80;99.90
51579;DHT22;47998;53.242;6.386;2023-02-01T04:32:06;5.70;99.90
51579;DHT22;47998;53.242;6.386;2023-02-01T04:34:32;5.70;99.90
51579;DHT22;47998;53.242;6.386;2023-02-01T04:36:58;5.80;99.90
51579;DHT22;47998;53.242;6.386;2023-02-01T04:39:23;5.90;99.90
51579;DHT22;47998;53.242;6.386;2023-02-01T04:41:49;5.80;99.90
51579;DHT22;47998;53.242;6.386;2023-02-01T04:44:19;5.80;99.90
51579;DHT22;47998;53.242;6.386;2023-02-01T04:46:45;5.90;99.90
51579;DHT22;47998;53.242;6.386;2023-02-01T04:49:12;5.80;99.90
51579;DHT22;47998;53.242;6.386;2023-02-01T04:51:39;5.80;99.90
51579;DHT22;47998;53.242;6.386;2023-02-01T04:54:05;5.70;99.90
51579;DHT22;47998;53.242;6.386;2023-02-01T04:56:31;5.60;99.90
51579;DHT22;47998;53.242;6.386;2023-02-01T04:58:57;5.70;99.90
51579;DHT22;47998;53.242;6.386;2023-02-01T05:01:23;5.90;99.90
51579;DHT22;47998;53.242;6.386;2023-02-01T05:03:50;5.80;99.90
51579;DHT22;47998;53.242;6.386;2023-02-01T05:06:16;5.70;99.90
51579;DHT22;47998;53.242;6.386;2023-02-01T05:08:42;5.70;99.90
51579;DHT22;47998;53.242;6.386;2023-02-01T05:11:08;5.80;99.90
51579;DHT22;47998;53.242;6.386;2023-02-01T05:13:54;5.80;99.90
51579;DHT22;47998;53.242;6.386;2023-02-01T05:16:19;5.90;99.90
51579;DHT22;47998;53.242;6.386;2023-02-01T05:18:45;6.00;99.90
51579;DHT22;47998;53.242;6.386;2023-02-01T05:21:11;6.00;99.90
51579;DHT22;47998;53.242;6.386;2023-02-01T05:23:37;6.00;99.90
51579;DHT22;47998;53.242;6.386;2023-02-01T05:26:23;6.00;99.90
51579;DHT22;47998;53.242;6.386;2023-02-01T05:28:49;6.00;99.90
51579;DHT22;47998;53.242;6.386;2023-02-01T05:31:14;6.00;99.90
51579;DHT22;47998;53.242;6.386;2023-02-01T05:33:40;6.10;38.80
51579;DHT22;47998;53.242;6.386;2023-02-01T05:36:06;6.20;1.00
51579;DHT22;47998;53.242;6.386;2023-02-01T05:38:32;6.20;1.00
51579;DHT22;47998;53.242;6.386;2023-02-01T05:40:58;6.20;13.80
51579;DHT22;47998;53.242;6.386;2023-02-01T05:43:24;6.30;1.00
51579;DHT22;47998;53.242;6.386;2023-02-01T05:45:52;6.20;1.00
51579;DHT22;47998;53.242;6.386;2023-02-01T05:48:18;6.20;1.00
51579;DHT22;47998;53.242;6.386;2023-02-01T05:50:44;6.20;1.00
51579;DHT22;47998;53.242;6.386;2023-02-01T05:53:10;6.10;72.60
51579;DHT22;47998;53.242;6.386;2023-02-01T05:55:36;5.90;99.90
51579;DHT22;47998;53.242;6.386;2023-02-01T05:58:03;5.90;99.90
51579;DHT22;47998;53.242;6.386;2023-02-01T06:00:29;6.00;99.90
51579;DHT22;47998;53.242;6.386;2023-02-01T06:02:54;6.00;99.90
51579;DHT22;47998;53.242;6.386;2023-02-01T06:05:20;5.90;99.90
51579;DHT22;47998;53.242;6.386;2023-02-01T06:07:46;6.00;99.90
51579;DHT22;47998;53.242;6.386;2023-02-01T06:10:12;6.00;99.90
51579;DHT22;47998;53.242;6.386;2023-02-01T06:12:38;6.00;99.90
51579;DHT22;47998;53.242;6.386;2023-02-01T06:15:04;5.90;99.90
51579;DHT22;47998;53.242;6.386;2023-02-01T06:17:30;5.90;99.90
51579;DHT22;47998;53.242;6.386;2023-02-01T06:19:56;5.90;99.90
51579;DHT22;47998;53.242;6.386;2023-02-01T06:22:22;5.80;99.90
51579;DHT22;47998;53.242;6.386;2023-02-01T06:24:48;5.70;99.90
51579;DHT22;47998;53.242;6.386;2023-02-01T06:27:14;5.70;99.90
51579;DHT22;47998;53.242;6.386;2023-02-01T06:29:40;5.80;1.00
51579;DHT22;47998;53.242;6.386;2023-02-01T06:32:06;5.80;99.90
51579;DHT22;47998;53.242;6.386;2023-02-01T06:34:32;5.80;99.90
51579;DHT22;47998;53.242;6.386;2023-02-01T06:36:57;5.80;99.90
51579;DHT22;47998;53.242;6.386;2023-02-01T06:39:23;5.80;99.90
51579;DHT22;47998;53.242;6.386;2023-02-01T06:41:49;5.80;99.90
51579;DHT22;47998;53.242;6.386;2023-02-01T06:44:16;5.90;99.90
51579;DHT22;47998;53.242;6.386;2023-02-01T06:46:42;6.00;99.90
51579;DHT22;47998;53.242;6.386;2023-02-01T06:49:08;6.00;99.90
51579;DHT22;47998;53.242;6.386;2023-02-01T06:51:34;6.10;99.90
51579;DHT22;47998;53.242;6.386;2023-02-01T06:54:00;6.00;99.90
51579;DHT22;47998;53.242;6.386;2023-02-01T06:56:26;6.10;99.90
51579;DHT22;47998;53.242;6.386;2023-02-01T06:58:52;6.10;99.90
51579;DHT22;47998;53.242;6.386;2023-02-01T07:01:19;6.20;99.90
51579;DHT22;47998;53.242;6.386;2023-02-01T07:03:49;6.20;99.90
51579;DHT22;47998;53.242;6.386;2023-02-01T07:06:16;6.20;94.30
51579;DHT22;47998;53.242;6.386;2023-02-01T07:08:42;6.20;94.50
51579;DHT22;47998;53.242;6.386;2023-02-01T07:11:10;6.20;99.90
51579;DHT22;47998;53.242;6.386;2023-02-01T07:13:37;6.10;99.90
51579;DHT22;47998;53.242;6.386;2023-02-01T07:16:06;6.10;99.90
51579;DHT22;47998;53.242;6.386;2023-02-01T07:18:32;6.00;99.90
51579;DHT22;47998;53.242;6.386;2023-02-01T07:20:58;5.90;99.90
51579;DHT22;47998;53.242;6.386;2023-02-01T07:23:25;5.90;99.90
51579;DHT22;47998;53.242;6.386;2023-02-01T07:25:56;5.90;99.90
51579;DHT22;47998;53.242;6.386;2023-02-01T07:28:22;5.80;1.00
51579;DHT22;47998;53.242;6.386;2023-02-01T07:30:47;5.90;1.00
51579;DHT22;47998;53.242;6.386;2023-02-01T07:33:21;5.90;1.00
51579;DHT22;47998;53.242;6.386;2023-02-01T07:35:47;5.90;1.00
51579;DHT22;47998;53.242;6.386;2023-02-01T07:38:13;5.90;1.00
51579;DHT22;47998;53.242;6.386;2023-02-01T07:40:39;6.00;1.00
51579;DHT22;47998;53.242;6.386;2023-02-01T07:43:05;6.00;1.00
51579;DHT22;47998;53.242;6.386;2023-02-01T07:45:36;5.90;1.00
51579;DHT22;47998;53.242;6.386;2023-02-01T07:48:02;5.90;1.00
51579;DHT22;47998;53.242;6.386;2023-02-01T07:50:29;5.90;1.00
51579;DHT22;47998;53.242;6.386;2023-02-01T07:52:55;5.90;1.00
51579;DHT22;47998;53.242;6.386;2023-02-01T07:55:21;6.00;1.00
51579;DHT22;47998;53.242;6.386;2023-02-01T07:57:46;6.00;1.00
51579;DHT22;47998;53.242;6.386;2023-02-01T08:00:13;6.00;1.00
51579;DHT22;47998;53.242;6.386;2023-02-01T08:03:01;6.10;99.90
51579;DHT22;47998;53.242;6.386;2023-02-01T08:05:27;6.10;99.90
51579;DHT22;47998;53.242;6.386;2023-02-01T08:07:53;6.00;99.90
51579;DHT22;47998;53.242;6.386;2023-02-01T08:10:19;6.00;99.90
51579;DHT22;47998;53.242;6.386;2023-02-01T08:12:45;6.10;99.90
51579;DHT22;47998;53.242;6.386;2023-02-01T08:15:14;6.10;99.90
51579;DHT22;47998;53.242;6.386;2023-02-01T08:17:48;6.10;99.90
51579;DHT22;47998;53.242;6.386;2023-02-01T08:20:15;6.20;99.90
51579;DHT22;47998;53.242;6.386;2023-02-01T08:22:40;6.20;99.90
51579;DHT22;47998;53.242;6.386;2023-02-01T08:25:06;6.20;99.90
51579;DHT22;47998;53.242;6.386;2023-02-01T08:27:33;6.10;99.90
51579;DHT22;47998;53.242;6.386;2023-02-01T08:29:59;6.20;99.90
51579;DHT22;47998;53.242;6.386;2023-02-01T08:32:25;6.20;99.90
51579;DHT22;47998;53.242;6.386;2023-02-01T08:34:51;6.20;99.90
51579;DHT22;47998;53.242;6.386;2023-02-01T08:37:17;6.10;1.00
51579;DHT22;47998;53.242;6.386;2023-02-01T08:39:43;6.20;1.00
51579;DHT22;47998;53.242;6.386;2023-02-01T08:42:10;6.20;99.90
51579;DHT22;47998;53.242;6.386;2023-02-01T08:44:54;6.30;99.90
51579;DHT22;47998;53.242;6.386;2023-02-01T08:47:20;6.30;99.90
51579;DHT22;47998;53.242;6.386;2023-02-01T08:49:46;6.30;99.90
51579;DHT22;47998;53.242;6.386;2023-02-01T08:52:12;6.30;99.90
51579;DHT22;47998;53.242;6.386;2023-02-01T08:54:37;6.30;99.90
51579;DHT22;47998;53.242;6.386;2023-02-01T08:57:05;6.30;99.90
51579;DHT22;47998;53.242;6.386;2023-02-01T08:59:31;6.30;99.90
51579;DHT22;47998;53.242;6.386;2023-02-01T09:01:56;6.30;72.90
51579;DHT22;47998;53.242;6.386;2023-02-01T09:04:22;6.30;49.30
51579;DHT22;47998;53.242;6.386;2023-02-01T09:06:48;6.40;6.60
51579;DHT22;47998;53.242;6.386;2023-02-01T09:09:14;6.40;1.00
51579;DHT22;47998;53.242;6.386;2023-02-01T09:11:39;6.40;1.00
51579;DHT22;47998;53.242;6.386;2023-02-01T09:14:05;6.40;1.00
51579;DHT22;47998;53.242;6.386;2023-02-01T09:16:31;6.30;1.00
51579;DHT22;47998;53.242;6.386;2023-02-01T09:18:57;6.40;1.00
51579;DHT22;47998;53.242;6.386;2023-02-01T09:21:23;6.40;1.00
51579;DHT22;47998;53.242;6.386;2023-02-01T09:23:51;6.40;1.00
51579;DHT22;47998;53.242;6.386;2023-02-01T09:26:17;6.40;1.00
51579;DHT22;47998;53.242;6.386;2023-02-01T09:28:42;6.50;1.00
51579;DHT22;47998;53.242;6.386;2023-02-01T09:31:08;6.60;99.90
51579;DHT22;47998;53.242;6.386;2023-02-01T09:33:35;6.50;99.90
51579;DHT22;47998;53.242;6.386;2023-02-01T09:36:03;6.60;99.90
51579;DHT22;47998;53.242;6.386;2023-02-01T09:38:30;6.50;99.90
51579;DHT22;47998;53.242;6.386;2023-02-01T09:40:57;6.50;1.00
51579;DHT22;47998;53.242;6.386;2023-02-01T09:44:07;6.40;99.90
51579;DHT22;47998;53.242;6.386;2023-02-01T09:46:32;6.30;99.90
51579;DHT22;47998;53.242;6.386;2023-02-01T09:49:08;6.30;99.90
51579;DHT22;47998;53.242;6.386;2023-02-01T09:51:38;6.30;99.90
51579;DHT22;47998;53.242;6.386;2023-02-01T09:54:15;6.30;99.90
51579;DHT22;47998;53.242;6.386;2023-02-01T10:02:33;5.90;81.70
51579;DHT22;47998;53.242;6.386;2023-02-01T10:05:01;5.70;99.90
51579;DHT22;47998;53.242;6.386;2023-02-01T10:10:30;5.60;99.90
51579;DHT22;47998;53.242;6.386;2023-02-01T10:18:34;5.80;99.90
51579;DHT22;47998;53.242;6.386;2023-02-01T10:24:08;5.80;99.90
51579;DHT22;47998;53.242;6.386;2023-02-01T10:26:42;5.90;99.90
51579;DHT22;47998;53.242;6.386;2023-02-01T10:29:18;5.90;99.90
51579;DHT22;47998;53.242;6.386;2023-02-01T10:31:45;6.00;99.90
51579;DHT22;47998;53.242;6.386;2023-02-01T10:34:26;6.20;1.00
51579;DHT22;47998;53.242;6.386;2023-02-01T10:37:12;6.30;1.00
51579;DHT22;47998;53.242;6.386;2023-02-01T10:39:48;6.50;1.00
51579;DHT22;47998;53.242;6.386;2023-02-01T10:42:16;6.60;99.90
51579;DHT22;47998;53.242;6.386;2023-02-01T10:44:45;6.70;45.50
51579;DHT22;47998;53.242;6.386;2023-02-01T10:47:14;6.70;99.90
51579;DHT22;47998;53.242;6.386;2023-02-01T10:55:34;6.60;1.00
51579;DHT22;47998;53.242;6.386;2023-02-01T10:58:14;6.40;99.90
51579;DHT22;47998;53.242;6.386;2023-02-01T11:00:56;6.10;99.90
51579;DHT22;47998;53.242;6.386;2023-02-01T11:08:43;6.30;99.90
51579;DHT22;47998;53.242;6.386;2023-02-01T11:11:10;6.10;99.90
51579;DHT22;47998;53.242;6.386;2023-02-01T11:13:38;6.00;99.90
51579;DHT22;47998;53.242;6.386;2023-02-01T11:16:05;5.90;99.90
51579;DHT22;47998;53.242;6.386;2023-02-01T11:18:36;4.90;99.90
51579;DHT22;47998;53.242;6.386;2023-02-01T11:21:02;6.70;99.90
51579;DHT22;47998;53.242;6.386;2023-02-01T11:23:31;4.60;99.90
51579;DHT22;47998;53.242;6.386;2023-02-01T11:26:01;5.80;99.90
51579;DHT22;47998;53.242;6.386;2023-02-01T11:28:32;6.00;99.90
51579;DHT22;47998;53.242;6.386;2023-02-01T11:31:03;5.70;99.90
51579;DHT22;47998;53.242;6.386;2023-02-01T11:33:31;6.40;99.90
51579;DHT22;47998;53.242;6.386;2023-02-01T11:36:06;6.50;99.90
51579;DHT22;47998;53.242;6.386;2023-02-01T11:38:33;6.50;99.90
51579;DHT22;47998;53.242;6.386;2023-02-01T11:41:26;6.50;99.90
51579;DHT22;47998;53.242;6.386;2023-02-01T11:43:56;6.60;99.90
51579;DHT22;47998;53.242;6.386;2023-02-01T11:46:30;6.70;99.90
51579;DHT22;47998;53.242;6.386;2023-02-01T11:49:12;6.70;99.90
51579;DHT22;47998;53.242;6.386;2023-02-01T11:54:49;6.80;66.30
51579;DHT22;47998;53.242;6.386;2023-02-01T12:00:37;7.00;99.90
51579;DHT22;47998;53.242;6.386;2023-02-01T12:16:55;7.30;99.90
51579;DHT22;47998;53.242;6.386;2023-02-01T12:22:37;7.50;52.30
51579;DHT22;47998;53.242;6.386;2023-02-01T12:25:41;7.60;95.60
51579;DHT22;47998;53.242;6.386;2023-02-01T12:31:04;7.60;99.90
51579;DHT22;47998;53.242;6.386;2023-02-01T12:36:19;7.50;1.00
51579;DHT22;47998;53.242;6.386;2023-02-01T12:39:15;7.30;1.00
51579;DHT22;47998;53.242;6.386;2023-02-01T12:47:26;7.30;99.90
51579;DHT22;47998;53.242;6.386;2023-02-01T12:50:04;7.40;99.90
51579;DHT22;47998;53.242;6.386;2023-02-01T12:55:19;7.50;77.40
51579;DHT22;47998;53.242;6.386;2023-02-01T12:58:12;7.60;99.90
51579;DHT22;47998;53.242;6.386;2023-02-01T13:01:03;7.60;99.90
51579;DHT22;47998;53.242;6.386;2023-02-01T13:03:52;7.60;1.00
51579;DHT22;47998;53.242;6.386;2023-02-01T13:06:24;7.60;99.90
51579;DHT22;47998;53.242;6.386;2023-02-01T13:09:27;7.60;85.30
51579;DHT22;47998;53.242;6.386;2023-02-01T13:12:02;7.60;99.90
51579;DHT22;47998;53.242;6.386;2023-02-01T13:14:46;7.70;99.90
51579;DHT22;47998;53.242;6.386;2023-02-01T13:17:19;7.80;99.90
51579;DHT22;47998;53.242;6.386;2023-02-01T13:22:25;7.80;99.90
51579;DHT22;47998;53.242;6.386;2023-02-01T13:24:54;7.80;99.90
51579;DHT22;47998;53.242;6.386;2023-02-01T13:27:21;7.80;99.90
51579;DHT22;47998;53.242;6.386;2023-02-01T13:29:58;7.70;99.90
51579;DHT22;47998;53.242;6.386;2023-02-01T13:32:48;7.70;99.90
51579;DHT22;47998;53.242;6.386;2023-02-01T13:36:09;7.60;1.00
51579;DHT22;47998;53.242;6.386;2023-02-01T13:38:29;7.50;99.90
51579;DHT22;47998;53.242;6.386;2023-02-01T13:41:28;7.60;1.00
51579;DHT22;47998;53.242;6.386;2023-02-01T13:44:00;7.60;1.00
51579;DHT22;47998;53.242;6.386;2023-02-01T13:46:27;7.70;1.00
51579;DHT22;47998;53.242;6.386;2023-02-01T13:48:59;7.50;1.00
51579;DHT22;47998;53.242;6.386;2023-02-01T13:51:36;7.70;1.00
51579;DHT22;47998;53.242;6.386;2023-02-01T13:54:06;7.60;1.00
51579;DHT22;47998;53.242;6.386;2023-02-01T13:56:42;7.60;1.00
51579;DHT22;47998;53.242;6.386;2023-02-01T13:59:49;7.60;1.00
51579;DHT22;47998;53.242;6.386;2023-02-01T14:10:49;7.30;99.90
51579;DHT22;47998;53.242;6.386;2023-02-01T14:13:29;7.30;99.90
51579;DHT22;47998;53.242;6.386;2023-02-01T14:18:57;7.40;99.90
51579;DHT22;47998;53.242;6.386;2023-02-01T14:23:58;7.50;99.90
51579;DHT22;47998;53.242;6.386;2023-02-01T14:26:45;7.50;1.00
51579;DHT22;47998;53.242;6.386;2023-02-01T14:29:22;7.50;12.90
51579;DHT22;47998;53.242;6.386;2023-02-01T14:34:38;7.50;51.50
51579;DHT22;47998;53.242;6.386;2023-02-01T14:47:53;7.40;99.90
51579;DHT22;47998;53.242;6.386;2023-02-01T14:50:31;7.30;99.90
51579;DHT22;47998;53.242;6.386;2023-02-01T15:00:55;7.10;99.90
51579;DHT22;47998;53.242;6.386;2023-02-01T15:06:13;7.00;99.90
51579;DHT22;47998;53.242;6.386;2023-02-01T15:08:41;7.20;99.90
51579;DHT22;47998;53.242;6.386;2023-02-01T15:11:13;7.30;99.90
51579;DHT22;47998;53.242;6.386;2023-02-01T15:13:40;7.40;99.90
51579;DHT22;47998;53.242;6.386;2023-02-01T15:18:32;7.50;99.90
51579;DHT22;47998;53.242;6.386;2023-02-01T15:20:59;7.50;99.90
51579;DHT22;47998;53.242;6.386;2023-02-01T15:23:26;7.40;99.90
51579;DHT22;47998;53.242;6.386;2023-02-01T15:25:53;7.40;99.90
51579;DHT22;47998;53.242;6.386;2023-02-01T15:28:19;7.30;99.90
51579;DHT22;47998;53.242;6.386;2023-02-01T15:31:14;7.20;99.90
51579;DHT22;47998;53.242;6.386;2023-02-01T15:33:56;7.10;1.00
51579;DHT22;47998;53.242;6.386;2023-02-01T15:36:23;7.10;1.00
51579;DHT22;47998;53.242;6.386;2023-02-01T15:39:23;7.10;1.00
51579;DHT22;47998;53.242;6.386;2023-02-01T15:41:57;7.00;1.00
51579;DHT22;47998;53.242;6.386;2023-02-01T15:44:33;6.90;21.50
51579;DHT22;47998;53.242;6.386;2023-02-01T15:47:06;6.80;9.10
51579;DHT22;47998;53.242;6.386;2023-02-01T15:49:37;6.70;77.60
51579;DHT22;47998;53.242;6.386;2023-02-01T15:52:25;6.70;98.10
51579;DHT22;47998;53.242;6.386;2023-02-01T15:54:59;6.60;99.90
51579;DHT22;47998;53.242;6.386;2023-02-01T15:57:33;6.60;51.90
51579;DHT22;47998;53.242;6.386;2023-02-01T16:00:23;6.50;1.00
51579;DHT22;47998;53.242;6.386;2023-02-01T16:02:57;6.60;1.00
51579;DHT22;47998;53.242;6.386;2023-02-01T16:05:35;6.50;1.00
51579;DHT22;47998;53.242;6.386;2023-02-01T16:08:20;6.50;1.00
51579;DHT22;47998;53.242;6.386;2023-02-01T16:10:48;6.50;99.90
51579;DHT22;47998;53.242;6.386;2023-02-01T16:13:16;6.50;99.90
51579;DHT22;47998;53.242;6.386;2023-02-01T16:15:42;6.40;99.90
51579;DHT22;47998;53.242;6.386;2023-02-01T16:18:09;6.40;99.90
51579;DHT22;47998;53.242;6.386;2023-02-01T16:20:37;6.40;99.90
51579;DHT22;47998;53.242;6.386;2023-02-01T16:23:05;6.30;1.00
51579;DHT22;47998;53.242;6.386;2023-02-01T16:25:31;6.30;1.00
51579;DHT22;47998;53.242;6.386;2023-02-01T16:27:56;6.30;1.00
51579;DHT22;47998;53.242;6.386;2023-02-01T16:30:22;6.20;1.00
51579;DHT22;47998;53.242;6.386;2023-02-01T16:33:00;6.20;1.00
51579;DHT22;47998;53.242;6.386;2023-02-01T16:35:34;6.20;99.90
51579;DHT22;47998;53.242;6.386;2023-02-01T16:38:22;6.20;99.90
51579;DHT22;47998;53.242;6.386;2023-02-01T16:40:49;6.20;99.90
51579;DHT22;47998;53.242;6.386;2023-02-01T16:43:17;6.30;39.00
51579;DHT22;47998;53.242;6.386;2023-02-01T16:45:44;6.20;99.90
51579;DHT22;47998;53.242;6.386;2023-02-01T16:48:27;6.20;99.90
51579;DHT22;47998;53.242;6.386;2023-02-01T16:51:01;6.10;99.90
51579;DHT22;47998;53.242;6.386;2023-02-01T16:53:30;6.00;99.90
51579;DHT22;47998;53.242;6.386;2023-02-01T16:55:57;6.00;99.90
51579;DHT22;47998;53.242;6.386;2023-02-01T16:58:24;6.00;99.90
51579;DHT22;47998;53.242;6.386;2023-02-01T17:00:50;6.10;99.90
51579;DHT22;47998;53.242;6.386;2023-02-01T17:03:18;6.10;99.90
51579;DHT22;47998;53.242;6.386;2023-02-01T17:05:50;6.10;99.90
51579;DHT22;47998;53.242;6.386;2023-02-01T17:08:19;6.10;1.00
51579;DHT22;47998;53.242;6.386;2023-02-01T17:10:47;6.10;1.00
51579;DHT22;47998;53.242;6.386;2023-02-01T17:13:15;6.10;1.00
51579;DHT22;47998;53.242;6.386;2023-02-01T17:15:49;6.20;1.00
51579;DHT22;47998;53.242;6.386;2023-02-01T17:18:18;6.10;1.00
51579;DHT22;47998;53.242;6.386;2023-02-01T17:20:44;6.10;32.40
51579;DHT22;47998;53.242;6.386;2023-02-01T17:23:12;6.10;1.00
51579;DHT22;47998;53.242;6.386;2023-02-01T17:25:38;6.00;1.00
51579;DHT22;47998;53.242;6.386;2023-02-01T17:28:04;6.10;99.90
51579;DHT22;47998;53.242;6.386;2023-02-01T17:30:31;6.00;99.90
51579;DHT22;47998;53.242;6.386;2023-02-01T17:32:57;6.10;1.00
51579;DHT22;47998;53.242;6.386;2023-02-01T17:35:26;6.10;1.00
51579;DHT22;47998;53.242;6.386;2023-02-01T17:37:52;6.10;99.90
51579;DHT22;47998;53.242;6.386;2023-02-01T17:40:18;6.10;1.00
51579;DHT22;47998;53.242;6.386;2023-02-01T17:42:44;5.90;1.00
51579;DHT22;47998;53.242;6.386;2023-02-01T17:45:35;6.00;99.90
51579;DHT22;47998;53.242;6.386;2023-02-01T17:48:04;6.10;1.00
51579;DHT22;47998;53.242;6.386;2023-02-01T17:50:31;6.00;29.30
51579;DHT22;47998;53.242;6.386;2023-02-01T17:52:57;6.00;14.80
51579;DHT22;47998;53.242;6.386;2023-02-01T17:55:24;6.10;1.00
51579;DHT22;47998;53.242;6.386;2023-02-01T17:57:51;6.10;1.00
51579;DHT22;47998;53.242;6.386;2023-02-01T18:00:17;6.20;1.00
51579;DHT22;47998;53.242;6.386;2023-02-01T18:02:43;6.10;1.00
51579;DHT22;47998;53.242;6.386;2023-02-01T18:05:41;6.10;1.00
51579;DHT22;47998;53.242;6.386;2023-02-01T18:08:09;6.10;1.00
51579;DHT22;47998;53.242;6.386;2023-02-01T18:10:35;6.10;96.30
51579;DHT22;47998;53.242;6.386;2023-02-01T18:13:01;6.20;1.00
51579;DHT22;47998;53.242;6.386;2023-02-01T18:15:29;6.20;24.90
51579;DHT22;47998;53.242;6.386;2023-02-01T18:17:55;6.10;99.90
51579;DHT22;47998;53.242;6.386;2023-02-01T18:20:23;6.00;99.90
51579;DHT22;47998;53.242;6.386;2023-02-01T18:22:50;6.00;1.00
51579;DHT22;47998;53.242;6.386;2023-02-01T18:25:22;6.00;23.60
51579;DHT22;47998;53.242;6.386;2023-02-01T18:27:50;6.10;99.90
51579;DHT22;47998;53.242;6.386;2023-02-01T18:30:18;6.00;99.90
51579;DHT22;47998;53.242;6.386;2023-02-01T18:32:44;6.00;99.90
51579;DHT22;47998;53.242;6.386;2023-02-01T18:37:43;5.90;1.00
51579;DHT22;47998;53.242;6.386;2023-02-01T18:40:13;6.10;99.90
51579;DHT22;47998;53.242;6.386;2023-02-01T18:42:40;6.00;99.90